createdAt,value
2022-12-11T00:01:21.698Z,48.17
2022-12-11T00:03:51.757Z,46.70
2022-12-11T00:06:23.043Z,47.50
2022-12-11T00:08:53.488Z,47.13
2022-12-11T00:11:23.281Z,48.10
2022-12-11T00:13:52.073Z,47.47
2022-12-11T00:16:26.547Z,49.47
2022-12-11T00:18:56.925Z,49.13
2022-12-11T00:21:25.967Z,46.22
2022-12-11T00:23:54.505Z,46.80
2022-12-11T00:26:23.402Z,45.83
2022-12-11T00:28:54.700Z,45.53
2022-12-11T00:31:24.358Z,47.92
2022-12-11T00:33:53.152Z,49.75
2022-12-11T00:36:24.819Z,51.92
2022-12-11T00:38:54.079Z,47.35
2022-12-11T00:41:23.126Z,46.63
2022-12-11T00:43:52.656Z,46.42
2022-12-11T00:46:22.082Z,49.03
2022-12-11T00:48:50.918Z,45.58
2022-12-11T00:51:19.530Z,51.30
2022-12-11T00:53:49.434Z,52.00
2022-12-11T00:56:20.335Z,46.05
2022-12-11T00:58:49.442Z,48.13
2022-12-11T01:01:20.630Z,47.22
2022-12-11T01:03:49.349Z,50.63
2022-12-11T01:06:20.054Z,47.95
2022-12-11T01:09:10.069Z,49.60
2022-12-11T01:11:38.043Z,55.50
2022-12-11T01:14:06.836Z,49.97
2022-12-11T01:16:35.589Z,51.60
2022-12-11T01:19:04.583Z,47.63
2022-12-11T01:21:33.172Z,43.63
2022-12-11T01:24:03.083Z,49.75
2022-12-11T01:26:31.796Z,55.97
2022-12-11T01:29:00.382Z,53.08
2022-12-11T01:31:28.954Z,45.72
2022-12-11T01:33:57.517Z,53.33
2022-12-11T01:36:26.161Z,50.63
2022-12-11T01:38:54.638Z,51.22
2022-12-11T01:41:24.447Z,48.78
2022-12-11T01:44:01.511Z,47.47
2022-12-11T01:46:31.488Z,43.38
2022-12-11T01:49:02.014Z,51.97
2022-12-11T01:51:32.476Z,47.42
2022-12-11T01:54:05.180Z,49.65
2022-12-11T01:56:37.114Z,50.97
2022-12-11T01:59:08.959Z,51.25
2022-12-11T02:01:42.448Z,52.25
2022-12-11T02:04:12.252Z,47.30
2022-12-11T02:06:43.250Z,52.75
2022-12-11T02:09:15.159Z,47.53
2022-12-11T02:11:53.852Z,46.08
2022-12-11T02:14:31.248Z,42.88
2022-12-11T02:17:06.360Z,45.33
2022-12-11T02:19:54.837Z,42.80
2022-12-11T02:22:29.778Z,55.03
2022-12-11T02:25:12.670Z,47.53
2022-12-11T02:27:47.525Z,47.38
2022-12-11T02:30:18.388Z,48.75
2022-12-11T02:32:50.011Z,46.55
2022-12-11T02:35:22.501Z,51.03
2022-12-11T02:37:56.625Z,48.72
2022-12-11T02:40:29.163Z,46.83
2022-12-11T02:43:00.537Z,51.20
2022-12-11T02:45:31.939Z,50.40
2022-12-11T02:48:04.511Z,47.30
2022-12-11T02:50:37.199Z,47.17
2022-12-11T02:53:07.741Z,40.70
2022-12-11T02:55:39.068Z,36.42
2022-12-11T02:58:13.041Z,40.58
2022-12-11T03:00:43.028Z,37.40
2022-12-11T03:03:12.017Z,41.50
2022-12-11T03:05:40.851Z,42.03
2022-12-11T03:08:09.581Z,41.05
2022-12-11T03:10:38.126Z,39.63
2022-12-11T03:13:06.754Z,42.55
2022-12-11T03:15:41.087Z,41.63
2022-12-11T03:18:18.913Z,40.50
2022-12-11T03:20:55.208Z,37.42
2022-12-11T03:23:31.771Z,37.42
2022-12-11T03:26:04.595Z,41.65
2022-12-11T03:28:38.645Z,37.80
2022-12-11T03:31:12.397Z,38.42
2022-12-11T03:33:45.759Z,37.88
2022-12-11T03:36:20.168Z,36.08
2022-12-11T03:38:52.527Z,36.53
2022-12-11T03:41:25.120Z,44.30
2022-12-11T03:43:57.232Z,38.95
2022-12-11T03:46:31.231Z,44.40
2022-12-11T03:49:06.536Z,38.97
2022-12-11T03:51:36.713Z,41.90
2022-12-11T03:54:05.783Z,41.03
2022-12-11T03:56:36.901Z,39.03
2022-12-11T03:59:05.522Z,39.08
2022-12-11T04:01:34.122Z,36.25
2022-12-11T04:04:04.148Z,40.45
2022-12-11T04:06:32.825Z,37.30
2022-12-11T04:09:01.359Z,39.15
2022-12-11T04:11:35.980Z,35.42
2022-12-11T04:14:23.147Z,36.30
2022-12-11T04:16:51.928Z,47.17
2022-12-11T04:19:40.324Z,38.95
2022-12-11T04:22:27.811Z,42.63
2022-12-11T04:24:56.326Z,35.25
2022-12-11T04:27:43.034Z,39.80
2022-12-11T04:30:14.906Z,37.60
2022-12-11T04:32:43.437Z,39.95
2022-12-11T04:35:14.435Z,40.03
2022-12-11T04:37:43.128Z,37.95
2022-12-11T04:40:15.017Z,37.95
2022-12-11T04:42:44.060Z,44.75
2022-12-11T04:45:13.993Z,45.20
2022-12-11T04:47:43.234Z,40.25
2022-12-11T04:50:14.931Z,35.42
2022-12-11T04:52:44.325Z,39.40
2022-12-11T04:55:13.910Z,40.40
2022-12-11T04:57:42.671Z,36.28
2022-12-11T05:00:13.748Z,36.42
2022-12-11T05:02:43.246Z,43.33
2022-12-11T05:05:14.305Z,39.88
2022-12-11T05:07:43.531Z,45.00
2022-12-11T05:10:12.200Z,52.10
2022-12-11T05:12:40.742Z,53.40
2022-12-11T05:15:10.181Z,54.78
2022-12-11T05:17:38.989Z,53.00
2022-12-11T05:20:09.493Z,55.47
2022-12-11T05:22:39.988Z,51.95
2022-12-11T05:25:09.544Z,51.22
2022-12-11T05:27:38.399Z,49.45
2022-12-11T05:30:08.309Z,47.33
2022-12-11T05:32:37.080Z,46.53
2022-12-11T05:35:06.472Z,45.75
2022-12-11T05:37:35.331Z,49.72
2022-12-11T05:40:06.267Z,49.70
2022-12-11T05:42:35.082Z,50.50
2022-12-11T05:45:03.722Z,45.72
2022-12-11T05:47:32.478Z,49.85
2022-12-11T05:50:01.441Z,47.88
2022-12-11T05:52:30.087Z,59.70
2022-12-11T05:54:58.655Z,50.05
2022-12-11T05:57:28.530Z,59.58
2022-12-11T05:59:57.052Z,52.78
2022-12-11T06:02:25.677Z,53.50
2022-12-11T06:04:54.248Z,54.30
2022-12-11T06:07:22.826Z,57.30
2022-12-11T06:09:51.336Z,60.78
2022-12-11T06:12:20.011Z,60.67
2022-12-11T06:14:49.977Z,62.92
2022-12-11T06:17:19.013Z,66.97
2022-12-11T06:19:47.490Z,69.72
2022-12-11T06:22:16.000Z,63.75
2022-12-11T06:24:44.596Z,59.58
2022-12-11T06:27:13.134Z,67.90
2022-12-11T06:29:41.867Z,75.35
2022-12-11T06:32:11.807Z,69.35
2022-12-11T06:34:40.350Z,68.70
2022-12-11T06:37:09.163Z,60.20
2022-12-11T06:39:37.673Z,65.63
2022-12-11T06:42:06.338Z,69.38
2022-12-11T06:44:34.859Z,66.97
2022-12-11T06:47:05.383Z,67.18
2022-12-11T06:49:35.361Z,67.22
2022-12-11T06:52:04.123Z,71.90
2022-12-11T06:54:32.856Z,67.60
2022-12-11T06:57:01.372Z,61.95
2022-12-11T06:59:30.135Z,70.43
2022-12-11T07:01:58.691Z,63.72
2022-12-11T07:04:27.657Z,68.60
2022-12-11T07:06:57.914Z,73.13
2022-12-11T07:09:26.461Z,61.67
2022-12-11T07:11:54.947Z,69.82
2022-12-11T07:14:23.478Z,62.65
2022-12-11T07:16:52.697Z,68.05
2022-12-11T07:19:21.240Z,66.15
2022-12-11T07:21:49.813Z,59.78
2022-12-11T07:24:20.095Z,63.70
2022-12-11T07:26:48.964Z,61.97
2022-12-11T07:29:17.525Z,61.03
2022-12-11T07:31:46.248Z,56.65
2022-12-11T07:34:15.089Z,55.63
2022-12-11T07:36:44.153Z,58.30
2022-12-11T07:39:13.575Z,57.95
2022-12-11T07:41:43.430Z,58.53
2022-12-11T07:44:12.758Z,58.85
2022-12-11T07:46:41.324Z,66.65
2022-12-11T07:49:09.868Z,65.70
2022-12-11T07:51:39.456Z,64.68
2022-12-11T07:54:12.003Z,60.42
2022-12-11T07:56:43.754Z,64.20
2022-12-11T07:59:14.023Z,61.67
2022-12-11T08:01:43.193Z,63.70
2022-12-11T08:04:15.497Z,63.85
2022-12-11T08:06:44.540Z,67.60
2022-12-11T08:09:20.901Z,64.38
2022-12-11T08:11:50.830Z,55.03
2022-12-11T08:14:21.395Z,60.25
2022-12-11T08:16:50.763Z,67.85
2022-12-11T08:19:19.352Z,59.13
2022-12-11T08:21:47.960Z,63.03
2022-12-11T08:24:20.585Z,57.60
2022-12-11T08:26:49.326Z,53.42
2022-12-11T08:29:17.959Z,55.53
2022-12-11T08:31:47.928Z,61.88
2022-12-11T08:34:16.586Z,56.70
2022-12-11T08:36:45.126Z,61.95
2022-12-11T08:39:13.617Z,60.20
2022-12-11T08:41:42.288Z,63.03
2022-12-11T08:44:16.614Z,48.65
2022-12-11T08:46:47.057Z,53.88
2022-12-11T08:49:15.638Z,52.65
2022-12-11T08:51:44.201Z,57.60
2022-12-11T08:54:12.857Z,49.85
2022-12-11T08:56:41.646Z,56.40
2022-12-11T08:59:10.924Z,56.40
2022-12-11T09:01:39.630Z,55.92
2022-12-11T09:04:09.605Z,47.47
2022-12-11T09:06:38.276Z,54.90
2022-12-11T09:09:07.021Z,61.10
2022-12-11T09:11:37.928Z,53.42
2022-12-11T09:14:08.100Z,48.45
2022-12-11T09:16:41.586Z,48.97
2022-12-11T09:19:14.525Z,50.33
2022-12-11T09:21:44.165Z,46.50
2022-12-11T09:24:13.850Z,47.38
2022-12-11T09:26:43.130Z,45.38
2022-12-11T09:29:12.228Z,47.17
2022-12-11T09:31:41.138Z,52.95
2022-12-11T09:34:13.153Z,45.65
2022-12-11T09:36:44.178Z,46.53
2022-12-11T09:39:14.535Z,52.22
2022-12-11T09:41:50.587Z,52.35
2022-12-11T09:44:44.359Z,49.13
2022-12-11T09:47:21.600Z,48.50
2022-12-11T09:49:57.911Z,47.35
2022-12-11T09:52:33.185Z,42.67
2022-12-11T09:55:11.998Z,47.08
2022-12-11T09:57:51.539Z,44.78
2022-12-11T10:00:28.375Z,46.63
2022-12-11T10:03:35.064Z,49.63
2022-12-11T10:06:14.209Z,48.22
2022-12-11T10:08:50.147Z,43.75
2022-12-11T10:11:56.314Z,46.40
2022-12-11T10:14:33.972Z,45.78
2022-12-11T10:17:10.932Z,41.00
2022-12-11T10:19:41.684Z,43.08
2022-12-11T10:22:18.872Z,42.03
2022-12-11T10:25:12.373Z,41.90
2022-12-11T10:27:42.352Z,43.30
2022-12-11T10:30:17.984Z,43.80
2022-12-11T10:32:57.288Z,44.55
2022-12-11T10:35:32.863Z,41.50
2022-12-11T10:38:13.719Z,40.30
2022-12-11T10:40:45.717Z,40.03
2022-12-11T10:43:14.493Z,39.38
2022-12-11T10:45:52.564Z,37.80
2022-12-11T10:48:22.081Z,42.42
2022-12-11T10:51:00.158Z,41.15
2022-12-11T10:53:31.315Z,38.25
2022-12-11T10:56:00.853Z,38.15
2022-12-11T10:58:34.184Z,30.58
2022-12-11T11:01:11.817Z,30.40
2022-12-11T11:03:53.940Z,29.13
2022-12-11T11:06:23.963Z,27.73
2022-12-11T11:08:55.968Z,29.00
2022-12-11T11:11:28.322Z,27.50
2022-12-11T11:14:16.150Z,31.20
2022-12-11T11:16:46.918Z,26.63
2022-12-11T11:19:22.328Z,26.48
2022-12-11T11:21:54.520Z,28.95
2022-12-11T11:24:29.603Z,33.22
2022-12-11T11:27:14.377Z,24.85
2022-12-11T11:29:47.668Z,27.15
2022-12-11T11:32:23.549Z,30.73
2022-12-11T11:34:52.447Z,26.30
2022-12-11T11:37:28.331Z,23.95
2022-12-11T11:40:04.294Z,27.90
2022-12-11T11:42:44.128Z,27.77
2022-12-11T11:45:17.316Z,28.38
2022-12-11T11:47:52.062Z,25.42
2022-12-11T11:50:25.960Z,28.25
2022-12-11T11:53:00.714Z,26.75
2022-12-11T11:55:39.150Z,24.73
2022-12-11T11:58:15.448Z,26.50
2022-12-11T12:00:45.192Z,30.02
2022-12-11T12:03:32.422Z,29.92
2022-12-11T12:06:15.037Z,28.92
2022-12-11T12:08:52.535Z,25.25
2022-12-11T12:11:30.824Z,27.25
2022-12-11T12:14:29.073Z,28.25
2022-12-11T12:17:12.982Z,30.35
2022-12-11T12:19:53.108Z,30.77
2022-12-11T12:22:34.708Z,29.45
2022-12-11T12:25:16.074Z,30.17
2022-12-11T12:27:53.944Z,26.42
2022-12-11T12:30:23.913Z,25.42
2022-12-11T12:33:08.386Z,26.95
2022-12-11T12:35:38.348Z,27.92
2022-12-11T12:38:16.087Z,26.08
2022-12-11T12:40:55.623Z,25.17
2022-12-11T12:43:46.874Z,25.63
2022-12-11T12:46:28.979Z,29.60
2022-12-11T12:48:59.754Z,22.98
2022-12-11T12:51:29.381Z,22.08
2022-12-11T12:54:01.276Z,20.17
2022-12-11T12:56:33.234Z,18.08
2022-12-11T12:59:03.402Z,20.75
2022-12-11T13:01:32.745Z,21.50
2022-12-11T13:04:03.991Z,22.77
2022-12-11T13:06:37.621Z,22.38
2022-12-11T13:09:16.986Z,20.77
2022-12-11T13:11:47.048Z,23.23
2022-12-11T13:14:31.102Z,22.90
2022-12-11T13:17:08.644Z,23.27
2022-12-11T13:19:42.387Z,26.25
2022-12-11T13:22:23.072Z,28.30
2022-12-11T13:25:01.547Z,23.25
2022-12-11T13:27:39.975Z,26.75
2022-12-11T13:30:23.903Z,25.50
2022-12-11T13:33:03.735Z,29.20
2022-12-11T13:35:33.795Z,28.73
2022-12-11T13:38:07.695Z,28.48
2022-12-11T13:40:40.772Z,26.70
2022-12-11T13:43:19.723Z,24.35
2022-12-11T13:45:52.369Z,24.55
2022-12-11T13:48:25.847Z,24.95
2022-12-11T13:50:55.584Z,26.25
2022-12-11T13:53:24.752Z,28.63
2022-12-11T13:55:58.762Z,28.38
2022-12-11T13:58:28.820Z,27.02
2022-12-11T14:01:05.481Z,28.50
2022-12-11T14:03:34.830Z,31.10
2022-12-11T14:06:04.543Z,27.73
2022-12-11T14:08:37.217Z,26.17
2022-12-11T14:11:06.778Z,26.58
2022-12-11T14:13:38.425Z,28.42
2022-12-11T14:16:08.913Z,29.63
2022-12-11T14:18:38.361Z,28.75
2022-12-11T14:21:07.601Z,26.35
2022-12-11T14:23:38.450Z,31.55
2022-12-11T14:26:22.536Z,27.02
2022-12-11T14:28:51.794Z,25.17
2022-12-11T14:31:28.771Z,26.55
2022-12-11T14:34:03.943Z,25.73
2022-12-11T14:36:34.337Z,26.52
2022-12-11T14:39:05.801Z,24.63
2022-12-11T14:41:43.249Z,27.35
2022-12-11T14:44:16.657Z,26.27
2022-12-11T14:46:49.508Z,25.35
2022-12-11T14:49:24.708Z,26.58
2022-12-11T14:51:55.140Z,25.98
2022-12-11T14:54:32.559Z,24.73
2022-12-11T14:57:03.092Z,23.90
2022-12-11T14:59:34.063Z,27.30
2022-12-11T15:02:21.287Z,24.33
2022-12-11T15:05:06.137Z,24.75
2022-12-11T15:07:35.477Z,23.75
2022-12-11T15:10:04.993Z,22.83
2022-12-11T15:12:33.727Z,26.73
2022-12-11T15:15:06.308Z,22.35
2022-12-11T15:17:37.417Z,20.90
2022-12-11T15:20:09.523Z,20.50
2022-12-11T15:22:38.631Z,25.95
2022-12-11T15:25:08.014Z,27.95
2022-12-11T15:27:38.767Z,23.23
2022-12-11T15:30:28.265Z,25.77
2022-12-11T15:33:06.177Z,24.58
2022-12-11T15:35:34.717Z,25.42
2022-12-11T15:38:03.664Z,26.85
2022-12-11T15:40:32.524Z,27.55
2022-12-11T15:43:03.357Z,25.48
2022-12-11T15:45:32.357Z,25.63
2022-12-11T15:48:00.838Z,27.08
2022-12-11T15:50:31.367Z,26.52
2022-12-11T15:53:00.052Z,28.13
2022-12-11T15:55:34.246Z,30.55
2022-12-11T15:58:06.112Z,28.52
2022-12-11T16:00:34.823Z,32.60
2022-12-11T16:03:03.704Z,26.88
2022-12-11T16:05:33.716Z,27.30
2022-12-11T16:08:02.332Z,24.90
2022-12-11T16:10:30.994Z,28.88
2022-12-11T16:13:00.297Z,27.55
2022-12-11T16:15:29.295Z,32.63
2022-12-11T16:18:03.200Z,27.67
2022-12-11T16:20:33.879Z,27.02
2022-12-11T16:23:02.592Z,24.58
2022-12-11T16:25:31.673Z,27.30
2022-12-11T16:28:02.562Z,25.75
2022-12-11T16:30:31.222Z,28.55
2022-12-11T16:32:59.674Z,27.85
2022-12-11T16:35:30.315Z,25.58
2022-12-11T16:38:00.586Z,27.00
2022-12-11T16:40:29.263Z,30.08
2022-12-11T16:42:58.568Z,25.67
2022-12-11T16:45:28.072Z,23.52
2022-12-11T16:47:57.006Z,28.42
2022-12-11T16:50:25.954Z,25.98
2022-12-11T16:52:55.438Z,25.40
2022-12-11T16:55:25.292Z,32.95
2022-12-11T16:57:53.983Z,25.40
2022-12-11T17:00:22.601Z,27.20
2022-12-11T17:02:51.177Z,26.15
2022-12-11T17:05:20.278Z,25.55
2022-12-11T17:07:48.784Z,27.45
2022-12-11T17:10:17.478Z,26.38
2022-12-11T17:12:47.394Z,25.98
2022-12-11T17:15:16.020Z,28.20
2022-12-11T17:17:44.590Z,20.20
2022-12-11T17:20:13.371Z,24.88
2022-12-11T17:22:41.941Z,25.02
2022-12-11T17:25:10.979Z,22.38
2022-12-11T17:27:39.696Z,25.08
2022-12-11T17:30:11.092Z,24.65
2022-12-11T17:32:39.634Z,23.45
2022-12-11T17:35:09.004Z,23.88
2022-12-11T17:37:37.768Z,25.08
2022-12-11T17:40:07.411Z,22.98
2022-12-11T17:42:36.284Z,25.67
2022-12-11T17:45:05.506Z,25.05
2022-12-11T17:47:35.389Z,24.92
2022-12-11T17:50:04.098Z,24.45
2022-12-11T17:52:35.006Z,26.35
2022-12-11T17:55:05.178Z,24.10
2022-12-11T17:57:34.026Z,24.27
2022-12-11T18:00:02.562Z,25.73
2022-12-11T18:02:42.311Z,27.05
2022-12-11T18:05:11.859Z,28.92
2022-12-11T18:07:41.077Z,25.00
2022-12-11T18:10:10.069Z,24.95
2022-12-11T18:12:38.634Z,21.35
2022-12-11T18:15:08.191Z,24.80
2022-12-11T18:17:36.782Z,27.40
2022-12-11T18:20:07.300Z,27.73
2022-12-11T18:22:35.911Z,25.48
2022-12-11T18:25:09.805Z,26.08
2022-12-11T18:27:39.132Z,25.88
2022-12-11T18:30:08.810Z,22.88
2022-12-11T18:32:37.294Z,26.45
2022-12-11T18:35:08.233Z,27.77
2022-12-11T18:37:37.012Z,25.17
2022-12-11T18:40:07.140Z,27.10
2022-12-11T18:42:35.947Z,24.35
2022-12-11T18:45:05.140Z,27.60
2022-12-11T18:47:33.687Z,26.30
2022-12-11T18:50:07.351Z,27.23
2022-12-11T18:52:37.840Z,24.98
2022-12-11T18:55:07.401Z,24.67
2022-12-11T18:57:35.939Z,21.30
2022-12-11T19:00:07.471Z,23.15
2022-12-11T19:02:36.679Z,24.13
2022-12-11T19:05:05.763Z,22.50
2022-12-11T19:07:35.292Z,23.65
2022-12-11T19:10:06.455Z,20.60
2022-12-11T19:12:35.275Z,22.38
2022-12-11T19:15:04.880Z,25.23
2022-12-11T19:17:33.422Z,23.30
2022-12-11T19:20:18.740Z,25.45
2022-12-11T19:22:50.927Z,25.25
2022-12-11T19:25:21.025Z,25.73
2022-12-11T19:27:50.494Z,25.73
2022-12-11T19:30:19.107Z,23.98
2022-12-11T19:32:48.373Z,25.70
2022-12-11T19:35:18.145Z,23.08
2022-12-11T19:37:46.824Z,23.10
2022-12-11T19:40:15.489Z,25.00
2022-12-11T19:42:45.416Z,25.48
2022-12-11T19:45:14.345Z,25.13
2022-12-11T19:47:43.047Z,24.10
2022-12-11T19:50:11.690Z,23.92
2022-12-11T19:52:46.032Z,24.52
2022-12-11T19:55:15.684Z,27.23
2022-12-11T19:57:45.545Z,25.70
2022-12-11T20:00:14.959Z,28.23
2022-12-11T20:02:43.699Z,22.20
2022-12-11T20:05:13.154Z,23.73
2022-12-11T20:07:44.329Z,25.08
2022-12-11T20:10:13.147Z,28.00
2022-12-11T20:12:41.769Z,26.02
2022-12-11T20:15:12.487Z,23.90
2022-12-11T20:17:43.930Z,22.33
2022-12-11T20:20:12.811Z,21.15
2022-12-11T20:22:41.279Z,22.55
2022-12-11T20:25:10.487Z,20.88
2022-12-11T20:27:39.939Z,19.77
2022-12-11T20:30:09.434Z,23.05
2022-12-11T20:32:39.668Z,18.90
2022-12-11T20:35:09.319Z,20.80
2022-12-11T20:37:38.014Z,20.70
2022-12-11T20:40:08.293Z,21.15
2022-12-11T20:42:36.960Z,24.23
2022-12-11T20:45:06.411Z,20.75
2022-12-11T20:47:34.951Z,21.50
2022-12-11T20:50:06.066Z,20.08
2022-12-11T20:52:36.309Z,20.40
2022-12-11T20:55:05.350Z,23.52
2022-12-11T20:57:33.936Z,22.55
2022-12-11T21:00:02.488Z,21.38
2022-12-11T21:02:31.397Z,22.27
2022-12-11T21:05:00.024Z,20.55
2022-12-11T21:07:29.888Z,24.33
2022-12-11T21:09:58.452Z,23.90
2022-12-11T21:12:31.534Z,22.05
2022-12-11T21:15:00.429Z,22.02
2022-12-11T21:17:29.045Z,22.30
2022-12-11T21:19:57.811Z,24.98
2022-12-11T21:22:26.322Z,25.65
2022-12-11T21:24:56.279Z,26.17
2022-12-11T21:27:24.789Z,24.10
2022-12-11T21:29:53.647Z,26.38
2022-12-11T21:32:22.348Z,23.55
2022-12-11T21:34:51.181Z,23.63
2022-12-11T21:37:19.749Z,25.02
2022-12-11T21:39:48.221Z,25.30
2022-12-11T21:42:18.303Z,24.52
2022-12-11T21:47:35.584Z,27.38
2022-12-11T21:50:04.515Z,25.20
2022-12-11T21:52:33.167Z,26.17
2022-12-11T21:55:01.692Z,23.17
2022-12-11T21:57:31.555Z,24.50
2022-12-11T22:00:00.436Z,24.20
2022-12-11T22:02:29.067Z,27.85
2022-12-11T22:05:00.959Z,25.77
2022-12-11T22:07:29.505Z,25.23
2022-12-11T22:09:58.674Z,21.80
2022-12-11T22:12:29.295Z,21.70
2022-12-11T22:14:59.603Z,25.33
2022-12-11T22:17:28.346Z,22.15
2022-12-11T22:19:57.275Z,23.33
2022-12-11T22:22:26.245Z,21.90
2022-12-11T22:24:56.000Z,21.52
2022-12-11T22:27:24.655Z,24.83
2022-12-11T22:29:55.809Z,19.40
2022-12-11T22:32:26.583Z,21.23
2022-12-11T22:34:56.309Z,21.23
2022-12-11T22:37:24.925Z,23.23
2022-12-11T22:39:53.497Z,23.52
2022-12-11T22:42:22.048Z,20.48
2022-12-11T22:44:50.562Z,21.52
2022-12-11T22:47:19.127Z,23.45
2022-12-11T22:49:49.062Z,22.23
2022-12-11T22:52:17.814Z,21.60
2022-12-11T22:54:46.386Z,16.63
2022-12-11T22:57:15.048Z,20.38
2022-12-11T22:59:43.483Z,21.10
2022-12-11T23:02:12.039Z,21.98
2022-12-11T23:04:40.666Z,20.05
2022-12-11T23:07:10.567Z,21.33
2022-12-11T23:09:39.062Z,16.98
2022-12-11T23:12:08.154Z,19.30
2022-12-11T23:14:36.899Z,18.52
2022-12-11T23:17:05.524Z,17.30
2022-12-11T23:19:34.649Z,19.02
2022-12-11T23:22:03.205Z,19.33
2022-12-11T23:24:33.132Z,18.15
2022-12-11T23:27:01.966Z,18.23
2022-12-11T23:29:30.633Z,19.20
2022-12-11T23:31:59.169Z,19.90
2022-12-11T23:34:28.063Z,16.85
2022-12-11T23:36:56.941Z,20.52
2022-12-11T23:39:25.739Z,18.63
2022-12-11T23:41:55.619Z,19.13
2022-12-11T23:44:24.200Z,17.63
2022-12-11T23:46:52.641Z,18.00
2022-12-11T23:49:21.384Z,18.50
2022-12-11T23:51:49.948Z,18.08
2022-12-11T23:54:18.427Z,15.88
2022-12-11T23:56:47.275Z,15.73
2022-12-11T23:59:17.254Z,18.67
